createdAt,value
2018-08-20T00:00:12.414Z,1011.57
2018-08-20T00:01:12.388Z,1011.56
2018-08-20T00:02:12.488Z,1011.59
2018-08-20T00:03:12.590Z,1011.57
2018-08-20T00:04:12.183Z,1011.57
2018-08-20T00:05:12.640Z,1011.56
2018-08-20T00:06:12.501Z,1011.55
2018-08-20T00:07:12.593Z,1011.52
2018-08-20T00:08:12.695Z,1011.48
2018-08-20T00:09:12.656Z,1011.49
2018-08-20T00:10:12.661Z,1011.52
2018-08-20T00:11:12.642Z,1011.52
2018-08-20T00:12:12.457Z,1011.56
2018-08-20T00:13:12.580Z,1011.57
2018-08-20T00:14:12.544Z,1011.55
2018-08-20T00:15:12.566Z,1011.55
2018-08-20T00:16:12.630Z,1011.58
2018-08-20T00:17:12.731Z,1011.55
2018-08-20T00:18:12.726Z,1011.60
2018-08-20T00:19:12.702Z,1011.53
2018-08-20T00:20:12.728Z,1011.49
2018-08-20T00:21:12.868Z,1011.52
2018-08-20T00:22:12.786Z,1011.49
2018-08-20T00:23:12.217Z,1011.50
2018-08-20T00:24:12.785Z,1011.52
2018-08-20T00:25:12.807Z,1011.46
2018-08-20T00:26:12.680Z,1011.48
2018-08-20T00:27:12.763Z,1011.52
2018-08-20T00:28:12.579Z,1011.50
2018-08-20T00:29:12.659Z,1011.48
2018-08-20T00:30:12.597Z,1011.46
2018-08-20T00:31:12.659Z,1011.48
2018-08-20T00:32:12.563Z,1011.42
2018-08-20T00:33:12.657Z,1011.41
2018-08-20T00:34:12.604Z,1011.44
2018-08-20T00:35:12.547Z,1011.45
2018-08-20T00:36:12.625Z,1011.42
2018-08-20T00:37:12.584Z,1011.43
2018-08-20T00:38:12.592Z,1011.40
2018-08-20T00:39:12.648Z,1011.41
2018-08-20T00:40:12.542Z,1011.39
2018-08-20T00:41:12.626Z,1011.36
2018-08-20T00:42:12.608Z,1011.41
2018-08-20T00:43:12.660Z,1011.42
2018-08-20T00:44:12.631Z,1011.47
2018-08-20T00:45:12.635Z,1011.45
2018-08-20T00:46:12.721Z,1011.51
2018-08-20T00:47:12.733Z,1011.49
2018-08-20T00:48:12.561Z,1011.42
2018-08-20T00:49:12.818Z,1011.44
2018-08-20T00:50:12.747Z,1011.38
2018-08-20T00:51:12.720Z,1011.40
2018-08-20T00:52:12.747Z,1011.42
2018-08-20T00:53:12.606Z,1011.45
2018-08-20T00:54:12.635Z,1011.39
2018-08-20T00:55:12.623Z,1011.39
2018-08-20T00:56:12.766Z,1011.36
2018-08-20T00:57:12.830Z,1011.37
2018-08-20T00:58:12.494Z,1011.40
2018-08-20T00:59:12.644Z,1011.41
2018-08-20T01:00:12.559Z,1011.44
2018-08-20T01:01:12.708Z,1011.40
2018-08-20T01:02:12.559Z,1011.42
2018-08-20T01:03:12.587Z,1011.44
2018-08-20T01:04:12.215Z,1011.42
2018-08-20T01:05:12.525Z,1011.43
2018-08-20T01:06:12.581Z,1011.42
2018-08-20T01:07:12.625Z,1011.46
2018-08-20T01:08:12.641Z,1011.44
2018-08-20T01:09:12.639Z,1011.43
2018-08-20T01:10:12.596Z,1011.45
2018-08-20T01:11:12.728Z,1011.44
2018-08-20T01:12:12.691Z,1011.45
2018-08-20T01:13:12.635Z,1011.45
2018-08-20T01:14:12.645Z,1011.41
2018-08-20T01:15:12.579Z,1011.48
2018-08-20T01:16:12.678Z,1011.43
2018-08-20T01:17:12.846Z,1011.45
2018-08-20T01:18:12.684Z,1011.44
2018-08-20T01:19:12.747Z,1011.39
2018-08-20T01:20:12.720Z,1011.42
2018-08-20T01:21:12.689Z,1011.43
2018-08-20T01:22:12.753Z,1011.41
2018-08-20T01:23:12.715Z,1011.41
2018-08-20T01:24:12.771Z,1011.47
2018-08-20T01:25:12.614Z,1011.42
2018-08-20T01:26:12.737Z,1011.45
2018-08-20T01:27:12.789Z,1011.44
2018-08-20T01:28:12.625Z,1011.43
2018-08-20T01:29:12.632Z,1011.46
2018-08-20T01:30:12.600Z,1011.43
2018-08-20T01:31:12.633Z,1011.42
2018-08-20T01:32:14.727Z,1011.42
2018-08-20T01:33:12.703Z,1011.45
2018-08-20T01:34:12.661Z,1011.38
2018-08-20T01:35:12.701Z,1011.45
2018-08-20T01:36:12.604Z,1011.35
2018-08-20T01:37:12.593Z,1011.42
2018-08-20T01:38:12.603Z,1011.42
2018-08-20T01:39:12.542Z,1011.39
2018-08-20T01:40:12.623Z,1011.38
2018-08-20T01:41:12.621Z,1011.39
2018-08-20T01:42:12.634Z,1011.37
2018-08-20T01:43:12.626Z,1011.33
2018-08-20T01:44:12.630Z,1011.34
2018-08-20T01:45:12.700Z,1011.36
2018-08-20T01:46:12.701Z,1011.38
2018-08-20T01:47:14.518Z,1011.36
2018-08-20T01:48:12.246Z,1011.35
2018-08-20T01:49:12.746Z,1011.36
2018-08-20T01:50:12.627Z,1011.38
2018-08-20T01:51:12.755Z,1011.33
2018-08-20T01:52:12.713Z,1011.35
2018-08-20T01:53:12.745Z,1011.34
2018-08-20T01:54:12.604Z,1011.34
2018-08-20T01:55:12.783Z,1011.35
2018-08-20T01:56:12.653Z,1011.35
2018-08-20T01:57:12.780Z,1011.32
2018-08-20T01:58:12.699Z,1011.30
2018-08-20T01:59:12.611Z,1011.30
2018-08-20T02:00:12.536Z,1011.29
2018-08-20T02:01:12.552Z,1011.28
2018-08-20T02:02:12.529Z,1011.28
2018-08-20T02:03:12.633Z,1011.23
2018-08-20T02:04:12.619Z,1011.28
2018-08-20T02:05:12.590Z,1011.28
2018-08-20T02:06:12.578Z,1011.24
2018-08-20T02:07:12.667Z,1011.28
2018-08-20T02:08:12.778Z,1011.28
2018-08-20T02:09:14.395Z,1011.22
2018-08-20T02:10:12.693Z,1011.22
2018-08-20T02:11:12.548Z,1011.22
2018-08-20T02:12:12.629Z,1011.22
2018-08-20T02:13:12.668Z,1011.21
2018-08-20T02:14:12.692Z,1011.25
2018-08-20T02:15:12.742Z,1011.23
2018-08-20T02:16:12.668Z,1011.24
2018-08-20T02:17:12.612Z,1011.20
2018-08-20T02:18:12.703Z,1011.18
2018-08-20T02:19:12.605Z,1011.19
2018-08-20T02:20:12.305Z,1011.21
2018-08-20T02:21:12.714Z,1011.23
2018-08-20T02:22:12.660Z,1011.19
2018-08-20T02:23:12.656Z,1011.18
2018-08-20T02:24:12.773Z,1011.14
2018-08-20T02:25:12.745Z,1011.16
2018-08-20T02:26:12.677Z,1011.14
2018-08-20T02:27:12.701Z,1011.16
2018-08-20T02:28:12.772Z,1011.17
2018-08-20T02:29:12.628Z,1011.16
2018-08-20T02:30:12.628Z,1011.18
2018-08-20T02:31:12.916Z,1011.16
2018-08-20T02:32:12.535Z,1011.14
2018-08-20T02:33:12.580Z,1011.16
2018-08-20T02:34:12.668Z,1011.15
2018-08-20T02:35:12.687Z,1011.15
2018-08-20T02:36:12.644Z,1011.14
2018-08-20T02:37:12.623Z,1011.18
2018-08-20T02:38:12.629Z,1011.15
2018-08-20T02:39:12.649Z,1011.14
2018-08-20T02:40:12.840Z,1011.20
2018-08-20T02:41:12.548Z,1011.13
2018-08-20T02:42:12.592Z,1011.12
2018-08-20T02:43:12.554Z,1011.11
2018-08-20T02:44:12.651Z,1011.16
2018-08-20T02:45:12.717Z,1011.17
2018-08-20T02:46:12.533Z,1011.15
2018-08-20T02:47:12.684Z,1011.16
2018-08-20T02:48:12.685Z,1011.14
2018-08-20T02:49:12.717Z,1011.17
2018-08-20T02:50:12.699Z,1011.15
2018-08-20T02:51:12.643Z,1011.15
2018-08-20T02:52:12.704Z,1011.14
2018-08-20T02:53:12.748Z,1011.13
2018-08-20T02:54:12.716Z,1011.20
2018-08-20T02:55:12.775Z,1011.15
2018-08-20T02:56:12.780Z,1011.11
2018-08-20T02:57:12.679Z,1011.15
2018-08-20T02:58:12.638Z,1011.15
2018-08-20T02:59:12.547Z,1011.12
2018-08-20T03:00:12.522Z,1011.08
2018-08-20T03:01:12.542Z,1011.06
2018-08-20T03:02:12.233Z,1011.08
2018-08-20T03:03:12.542Z,1011.10
2018-08-20T03:04:12.613Z,1011.04
2018-08-20T03:05:12.589Z,1011.09
2018-08-20T03:06:12.565Z,1011.01
2018-08-20T03:07:12.828Z,1011.04
2018-08-20T03:08:12.638Z,1011.02
2018-08-20T03:09:12.643Z,1011.05
2018-08-20T03:10:12.595Z,1011.04
2018-08-20T03:11:12.628Z,1011.04
2018-08-20T03:12:12.251Z,1011.06
2018-08-20T03:13:13.109Z,1011.07
2018-08-20T03:14:12.917Z,1011.04
2018-08-20T03:15:12.694Z,1011.04
2018-08-20T03:16:12.721Z,1011.07
2018-08-20T03:17:12.784Z,1011.05
2018-08-20T03:18:12.948Z,1011.04
2018-08-20T03:19:12.661Z,1011.05
2018-08-20T03:20:12.748Z,1011.06
2018-08-20T03:21:12.680Z,1011.03
2018-08-20T03:22:12.688Z,1011.04
2018-08-20T03:23:12.783Z,1011.00
2018-08-20T03:24:12.696Z,1011.01
2018-08-20T03:25:12.731Z,1011.04
2018-08-20T03:26:12.788Z,1011.06
2018-08-20T03:27:12.946Z,1011.04
2018-08-20T03:28:12.720Z,1011.03
2018-08-20T03:29:12.919Z,1011.08
2018-08-20T03:30:12.703Z,1011.03
2018-08-20T03:31:12.716Z,1011.01
2018-08-20T03:32:12.712Z,1011.05
2018-08-20T03:33:12.634Z,1011.08
2018-08-20T03:34:12.644Z,1011.09
2018-08-20T03:35:12.644Z,1011.06
2018-08-20T03:36:12.548Z,1011.10
2018-08-20T03:37:12.657Z,1011.10
2018-08-20T03:38:12.661Z,1011.07
2018-08-20T03:39:12.609Z,1011.12
2018-08-20T03:40:12.457Z,1011.06
2018-08-20T03:41:12.750Z,1011.10
2018-08-20T03:42:12.800Z,1011.09
2018-08-20T03:43:12.678Z,1011.12
2018-08-20T03:44:12.702Z,1011.11
2018-08-20T03:45:12.675Z,1011.12
2018-08-20T03:46:12.616Z,1011.09
2018-08-20T03:47:12.701Z,1011.10
2018-08-20T03:48:12.636Z,1011.16
2018-08-20T03:49:12.585Z,1011.11
2018-08-20T03:50:12.784Z,1011.12
2018-08-20T03:51:12.724Z,1011.11
2018-08-20T03:52:12.854Z,1011.09
2018-08-20T03:53:14.876Z,1011.12
2018-08-20T03:54:12.687Z,1011.10
2018-08-20T03:55:12.704Z,1011.12
2018-08-20T03:56:12.695Z,1011.16
2018-08-20T03:57:13.092Z,1011.18
2018-08-20T03:58:12.328Z,1011.09
2018-08-20T03:59:12.527Z,1011.11
2018-08-20T04:00:12.595Z,1011.20
2018-08-20T04:01:12.708Z,1011.16
2018-08-20T04:02:14.396Z,1011.16
2018-08-20T04:03:12.750Z,1011.22
2018-08-20T04:04:12.636Z,1011.19
2018-08-20T04:05:12.825Z,1011.15
2018-08-20T04:06:12.729Z,1011.19
2018-08-20T04:07:12.644Z,1011.18
2018-08-20T04:08:12.699Z,1011.25
2018-08-20T04:09:12.787Z,1011.19
2018-08-20T04:10:12.760Z,1011.22
2018-08-20T04:11:12.672Z,1011.17
2018-08-20T04:12:12.641Z,1011.17
2018-08-20T04:13:12.674Z,1011.20
2018-08-20T04:14:12.669Z,1011.19
2018-08-20T04:15:12.829Z,1011.17
2018-08-20T04:16:13.072Z,1011.18
2018-08-20T04:17:12.659Z,1011.15
2018-08-20T04:18:12.700Z,1011.13
2018-08-20T04:19:12.694Z,1011.11
2018-08-20T04:20:12.824Z,1011.16
2018-08-20T04:21:12.759Z,1011.11
2018-08-20T04:22:12.747Z,1011.09
2018-08-20T04:23:12.822Z,1011.03
2018-08-20T04:24:12.823Z,1011.00
2018-08-20T04:25:12.798Z,1011.03
2018-08-20T04:26:12.684Z,1010.99
2018-08-20T04:27:12.697Z,1010.99
2018-08-20T04:28:13.074Z,1010.99
2018-08-20T04:29:12.727Z,1010.97
2018-08-20T04:30:12.557Z,1011.00
2018-08-20T04:31:13.211Z,1010.99
2018-08-20T04:32:13.084Z,1010.93
2018-08-20T04:33:13.145Z,1010.96
2018-08-20T04:34:12.659Z,1010.91
2018-08-20T04:35:12.600Z,1011.00
2018-08-20T04:36:12.505Z,1011.07
2018-08-20T04:37:12.547Z,1011.10
2018-08-20T04:38:12.627Z,1011.11
2018-08-20T04:39:12.662Z,1011.14
2018-08-20T04:40:12.652Z,1011.11
2018-08-20T04:41:12.597Z,1011.07
2018-08-20T04:42:13.228Z,1011.08
2018-08-20T04:43:12.821Z,1011.07
2018-08-20T04:44:12.774Z,1011.05
2018-08-20T04:45:14.459Z,1011.08
2018-08-20T04:46:13.139Z,1011.06
2018-08-20T04:47:12.310Z,1011.04
2018-08-20T04:48:12.303Z,1011.02
2018-08-20T04:49:12.825Z,1011.06
2018-08-20T04:50:12.254Z,1011.05
2018-08-20T04:51:13.088Z,1011.05
2018-08-20T04:52:12.744Z,1011.04
2018-08-20T04:53:12.779Z,1011.00
2018-08-20T04:54:14.587Z,1010.99
2018-08-20T04:55:12.676Z,1011.01
2018-08-20T04:56:13.123Z,1011.02
2018-08-20T04:57:13.281Z,1011.02
2018-08-20T04:58:12.543Z,1011.05
2018-08-20T04:59:12.524Z,1011.06
2018-08-20T05:00:12.552Z,1011.03
2018-08-20T05:01:12.569Z,1011.05
2018-08-20T05:02:12.526Z,1011.04
2018-08-20T05:03:12.978Z,1011.05
2018-08-20T05:04:12.241Z,1011.08
2018-08-20T05:05:13.143Z,1011.08
2018-08-20T05:06:12.429Z,1011.12
2018-08-20T05:07:12.573Z,1011.12
2018-08-20T05:08:12.644Z,1011.11
2018-08-20T05:09:12.655Z,1011.15
2018-08-20T05:10:12.174Z,1011.14
2018-08-20T05:11:12.624Z,1011.15
2018-08-20T05:12:12.665Z,1011.16
2018-08-20T05:13:12.633Z,1011.20
2018-08-20T05:14:14.470Z,1011.18
2018-08-20T05:15:12.570Z,1011.17
2018-08-20T05:16:12.672Z,1011.21
2018-08-20T05:17:14.370Z,1011.26
2018-08-20T05:18:12.606Z,1011.23
2018-08-20T05:19:12.746Z,1011.26
2018-08-20T05:20:12.708Z,1011.31
2018-08-20T05:21:12.754Z,1011.30
2018-08-20T05:22:12.209Z,1011.28
2018-08-20T05:23:12.691Z,1011.26
2018-08-20T05:24:12.515Z,1011.27
2018-08-20T05:25:12.498Z,1011.22
2018-08-20T05:26:12.633Z,1011.32
2018-08-20T05:27:12.513Z,1011.24
2018-08-20T05:28:12.440Z,1011.29
2018-08-20T05:29:12.581Z,1011.29
2018-08-20T05:30:12.550Z,1011.30
2018-08-20T05:31:12.550Z,1011.33
2018-08-20T05:32:12.571Z,1011.33
2018-08-20T05:33:12.503Z,1011.38
2018-08-20T05:34:12.501Z,1011.39
2018-08-20T05:35:12.506Z,1011.41
2018-08-20T05:36:12.574Z,1011.41
2018-08-20T05:37:12.537Z,1011.42
2018-08-20T05:38:12.825Z,1011.46
2018-08-20T05:39:12.365Z,1011.46
2018-08-20T05:40:13.150Z,1011.46
2018-08-20T05:41:12.582Z,1011.46
2018-08-20T05:42:12.598Z,1011.48
2018-08-20T05:43:12.509Z,1011.46
2018-08-20T05:44:12.537Z,1011.47
2018-08-20T05:45:12.541Z,1011.48
2018-08-20T05:46:12.575Z,1011.44
2018-08-20T05:47:12.563Z,1011.47
2018-08-20T05:48:12.523Z,1011.46
2018-08-20T05:49:12.544Z,1011.44
2018-08-20T05:50:12.772Z,1011.47
2018-08-20T05:51:12.590Z,1011.47
2018-08-20T05:52:13.236Z,1011.47
2018-08-20T05:53:14.375Z,1011.47
2018-08-20T05:54:12.658Z,1011.48
2018-08-20T05:55:12.960Z,1011.54
2018-08-20T05:56:13.174Z,1011.49
2018-08-20T05:57:12.246Z,1011.53
2018-08-20T05:58:12.543Z,1011.57
2018-08-20T05:59:13.211Z,1011.57
2018-08-20T06:00:12.674Z,1011.52
2018-08-20T06:01:12.200Z,1011.53
2018-08-20T06:02:12.493Z,1011.54
2018-08-20T06:03:13.001Z,1011.54
2018-08-20T06:04:12.517Z,1011.55
2018-08-20T06:05:13.146Z,1011.55
2018-08-20T06:06:12.344Z,1011.58
2018-08-20T06:07:12.955Z,1011.59
2018-08-20T06:08:12.952Z,1011.66
2018-08-20T06:09:12.860Z,1011.66
2018-08-20T06:10:12.689Z,1011.73
2018-08-20T06:11:12.475Z,1011.72
2018-08-20T06:12:12.982Z,1011.71
2018-08-20T06:13:13.165Z,1011.77
2018-08-20T06:14:12.455Z,1011.79
2018-08-20T06:15:13.213Z,1011.81
2018-08-20T06:16:12.199Z,1011.84
2018-08-20T06:17:12.223Z,1011.81
2018-08-20T06:18:12.585Z,1011.83
2018-08-20T06:19:13.272Z,1011.80
2018-08-20T06:20:12.303Z,1011.83
2018-08-20T06:21:12.763Z,1011.82
2018-08-20T06:22:13.203Z,1011.84
2018-08-20T06:23:12.976Z,1011.84
2018-08-20T06:24:12.324Z,1011.87
2018-08-20T06:25:12.604Z,1011.89
2018-08-20T06:26:12.775Z,1011.94
2018-08-20T06:27:12.706Z,1011.90
2018-08-20T06:28:12.802Z,1011.93
2018-08-20T06:29:12.979Z,1011.97
2018-08-20T06:30:12.965Z,1011.94
2018-08-20T06:31:12.601Z,1011.92
2018-08-20T06:32:12.901Z,1011.95
2018-08-20T06:33:12.692Z,1011.97
2018-08-20T06:34:12.687Z,1011.97
2018-08-20T06:35:12.663Z,1011.98
2018-08-20T06:36:12.871Z,1011.97
2018-08-20T06:37:12.600Z,1011.96
2018-08-20T06:38:14.940Z,1011.98
2018-08-20T06:39:12.629Z,1011.95
2018-08-20T06:40:13.176Z,1011.97
2018-08-20T06:41:12.143Z,1011.97
2018-08-20T06:42:12.522Z,1012.02
2018-08-20T06:43:12.961Z,1011.99
2018-08-20T06:44:13.096Z,1011.99
2018-08-20T06:45:12.580Z,1011.97
2018-08-20T06:46:12.541Z,1011.95
2018-08-20T06:47:12.559Z,1011.94
2018-08-20T06:48:12.576Z,1011.91
2018-08-20T06:49:12.600Z,1011.94
2018-08-20T06:50:12.521Z,1011.89
2018-08-20T06:51:12.989Z,1011.93
2018-08-20T06:52:12.613Z,1011.93
2018-08-20T06:53:12.991Z,1011.93
2018-08-20T06:54:12.680Z,1011.95
2018-08-20T06:55:12.940Z,1011.93
2018-08-20T06:56:12.975Z,1011.95
2018-08-20T06:57:13.158Z,1012.00
2018-08-20T06:58:12.487Z,1011.93
2018-08-20T06:59:12.527Z,1012.00
2018-08-20T07:00:13.283Z,1011.98
2018-08-20T07:01:12.966Z,1012.01
2018-08-20T07:02:12.975Z,1011.99
2018-08-20T07:03:12.718Z,1011.97
2018-08-20T07:04:13.198Z,1011.99
2018-08-20T07:05:12.557Z,1011.98
2018-08-20T07:06:12.976Z,1012.05
2018-08-20T07:07:12.967Z,1012.10
2018-08-20T07:08:12.877Z,1012.10
2018-08-20T07:09:12.218Z,1012.10
2018-08-20T07:10:13.200Z,1012.06
2018-08-20T07:11:12.715Z,1012.12
2018-08-20T07:12:12.235Z,1012.11
2018-08-20T07:13:12.666Z,1012.11
2018-08-20T07:14:12.513Z,1012.11
2018-08-20T07:15:12.576Z,1012.07
2018-08-20T07:16:13.868Z,1012.11
2018-08-20T07:17:12.561Z,1012.11
2018-08-20T07:18:12.567Z,1012.13
2018-08-20T07:19:12.626Z,1012.08
2018-08-20T07:20:12.658Z,1012.09
2018-08-20T07:21:13.128Z,1012.14
2018-08-20T07:22:12.631Z,1012.13
2018-08-20T07:23:12.926Z,1012.17
2018-08-20T07:24:13.842Z,1012.17
2018-08-20T07:25:12.638Z,1012.19
2018-08-20T07:26:12.713Z,1012.22
2018-08-20T07:27:12.542Z,1012.18
2018-08-20T07:28:12.504Z,1012.17
2018-08-20T07:29:12.767Z,1012.20
2018-08-20T07:30:13.126Z,1012.16
2018-08-20T07:31:12.577Z,1012.18
2018-08-20T07:32:12.512Z,1012.21
2018-08-20T07:33:12.551Z,1012.17
2018-08-20T07:34:12.587Z,1012.20
2018-08-20T07:35:12.942Z,1012.18
2018-08-20T07:36:32.888Z,1012.20
2018-08-20T07:37:12.626Z,1012.18
2018-08-20T07:38:12.567Z,1012.24
2018-08-20T07:39:12.919Z,1012.22
2018-08-20T07:40:13.114Z,1012.18
2018-08-20T07:41:12.245Z,1012.18
2018-08-20T07:42:12.585Z,1012.21
2018-08-20T07:43:12.600Z,1012.21
2018-08-20T07:44:12.794Z,1012.20
2018-08-20T07:45:12.624Z,1012.24
2018-08-20T07:46:14.521Z,1012.24
2018-08-20T07:47:13.165Z,1012.24
2018-08-20T07:48:12.605Z,1012.29
2018-08-20T07:49:12.267Z,1012.31
2018-08-20T07:50:12.580Z,1012.35
2018-08-20T07:51:12.648Z,1012.30
2018-08-20T07:52:12.630Z,1012.33
2018-08-20T07:53:12.675Z,1012.33
2018-08-20T07:54:12.659Z,1012.35
2018-08-20T07:55:13.021Z,1012.30
2018-08-20T07:56:33.222Z,1012.37
2018-08-20T07:57:12.985Z,1012.33
2018-08-20T07:58:12.964Z,1012.44
2018-08-20T07:59:12.988Z,1012.42
2018-08-20T08:00:13.026Z,1012.39
2018-08-20T08:01:13.128Z,1012.43
2018-08-20T08:02:12.479Z,1012.47
2018-08-20T08:03:12.496Z,1012.43
2018-08-20T08:04:39.474Z,1012.47
2018-08-20T08:05:13.143Z,1012.44
2018-08-20T08:06:12.267Z,1012.46
2018-08-20T08:07:12.730Z,1012.49
2018-08-20T08:08:12.694Z,1012.44
2018-08-20T08:09:14.705Z,1012.47
2018-08-20T08:10:13.246Z,1012.46
2018-08-20T08:11:12.210Z,1012.51
2018-08-20T08:12:12.930Z,1012.52
2018-08-20T08:13:13.010Z,1012.53
2018-08-20T08:14:12.343Z,1012.58
2018-08-20T08:15:13.202Z,1012.58
2018-08-20T08:16:12.669Z,1012.59
2018-08-20T08:17:12.706Z,1012.62
2018-08-20T08:18:13.205Z,1012.65
2018-08-20T08:19:12.663Z,1012.65
2018-08-20T08:20:12.729Z,1012.65
2018-08-20T08:21:12.733Z,1012.71
2018-08-20T08:22:13.210Z,1012.64
2018-08-20T08:23:12.707Z,1012.67
2018-08-20T08:24:32.908Z,1012.66
2018-08-20T08:25:12.782Z,1012.66
2018-08-20T08:26:12.709Z,1012.71
2018-08-20T08:27:13.334Z,1012.63
2018-08-20T08:28:12.745Z,1012.69
2018-08-20T08:29:12.705Z,1012.72
2018-08-20T08:30:13.164Z,1012.69
2018-08-20T08:31:18.209Z,1012.73
2018-08-20T08:32:12.289Z,1012.71
2018-08-20T08:33:12.295Z,1012.71
2018-08-20T08:34:12.727Z,1012.69
2018-08-20T08:35:12.723Z,1012.73
2018-08-20T08:36:12.640Z,1012.76
2018-08-20T08:37:12.709Z,1012.70
2018-08-20T08:38:12.307Z,1012.75
2018-08-20T08:39:12.628Z,1012.71
2018-08-20T08:40:12.606Z,1012.71
2018-08-20T08:41:14.189Z,1012.73
2018-08-20T08:42:12.842Z,1012.67
2018-08-20T08:43:12.265Z,1012.71
2018-08-20T08:44:12.348Z,1012.72
2018-08-20T08:45:13.222Z,1012.69
2018-08-20T08:46:12.320Z,1012.72
2018-08-20T08:47:12.724Z,1012.70
2018-08-20T08:48:12.628Z,1012.73
2018-08-20T08:49:14.223Z,1012.70
2018-08-20T08:50:12.743Z,1012.76
2018-08-20T08:51:12.825Z,1012.72
2018-08-20T08:52:12.827Z,1012.76
2018-08-20T08:53:12.402Z,1012.76
2018-08-20T08:54:12.800Z,1012.80
2018-08-20T08:55:12.446Z,1012.72
2018-08-20T08:56:12.717Z,1012.75
2018-08-20T08:57:12.667Z,1012.76
2018-08-20T08:58:12.314Z,1012.74
2018-08-20T08:59:12.301Z,1012.74
2018-08-20T09:00:14.494Z,1012.77
2018-08-20T09:01:27.308Z,1012.79
2018-08-20T09:02:26.879Z,1012.77
2018-08-20T09:03:12.601Z,1012.77
2018-08-20T09:04:12.290Z,1012.81
2018-08-20T09:05:12.290Z,1012.84
2018-08-20T09:06:12.898Z,1012.86
2018-08-20T09:07:12.744Z,1012.80
2018-08-20T09:08:12.548Z,1012.83
2018-08-20T09:09:13.146Z,1012.82
2018-08-20T09:10:12.693Z,1012.84
2018-08-20T09:11:12.664Z,1012.84
2018-08-20T09:12:12.702Z,1012.83
2018-08-20T09:13:12.306Z,1012.82
2018-08-20T09:14:12.363Z,1012.83
2018-08-20T09:15:12.959Z,1012.82
2018-08-20T09:16:13.085Z,1012.81
2018-08-20T09:17:12.735Z,1012.83
2018-08-20T09:18:12.732Z,1012.80
2018-08-20T09:19:12.684Z,1012.80
2018-08-20T09:20:12.654Z,1012.84
2018-08-20T09:21:13.230Z,1012.80
2018-08-20T09:22:12.940Z,1012.80
2018-08-20T09:23:12.533Z,1012.80
2018-08-20T09:24:13.272Z,1012.78
2018-08-20T09:25:13.266Z,1012.79
2018-08-20T09:26:12.363Z,1012.74
2018-08-20T09:27:13.231Z,1012.76
2018-08-20T09:28:15.047Z,1012.73
2018-08-20T09:29:12.728Z,1012.73
2018-08-20T09:30:15.054Z,1012.71
2018-08-20T09:31:14.929Z,1012.70
2018-08-20T09:32:12.285Z,1012.75
2018-08-20T09:33:12.916Z,1012.73
2018-08-20T09:34:13.074Z,1012.78
2018-08-20T09:35:13.555Z,1012.80
2018-08-20T09:36:12.738Z,1012.80
2018-08-20T09:37:12.582Z,1012.84
2018-08-20T09:38:13.288Z,1012.81
2018-08-20T09:39:14.639Z,1012.84
2018-08-20T09:40:12.716Z,1012.81
2018-08-20T09:41:13.211Z,1012.83
2018-08-20T09:42:13.255Z,1012.81
2018-08-20T09:43:12.385Z,1012.83
2018-08-20T09:44:33.838Z,1012.83
2018-08-20T09:45:12.754Z,1012.81
2018-08-20T09:46:12.739Z,1012.81
2018-08-20T09:47:13.283Z,1012.80
2018-08-20T09:48:13.075Z,1012.78
2018-08-20T09:49:13.054Z,1012.77
2018-08-20T09:50:14.559Z,1012.74
2018-08-20T09:51:13.110Z,1012.78
2018-08-20T09:52:13.036Z,1012.74
2018-08-20T09:53:13.597Z,1012.81
2018-08-20T09:54:13.215Z,1012.82
2018-08-20T09:55:12.750Z,1012.76
2018-08-20T09:57:45.563Z,1012.74
2018-08-20T09:58:45.704Z,1012.72
2018-08-20T10:00:43.667Z,1012.77
2018-08-20T10:03:34.039Z,1012.72
2018-08-20T10:04:34.044Z,1012.70
2018-08-20T10:06:29.162Z,1012.71
2018-08-20T10:07:29.413Z,1012.69
2018-08-20T10:09:23.780Z,1012.71
2018-08-20T10:10:23.629Z,1012.68
2018-08-20T10:12:18.469Z,1012.72
2018-08-20T10:13:19.010Z,1012.69
2018-08-20T10:15:13.164Z,1012.72
2018-08-20T10:16:13.821Z,1012.71
2018-08-20T10:18:07.597Z,1012.77
2018-08-20T10:19:07.518Z,1012.79
2018-08-20T10:21:02.447Z,1012.72
2018-08-20T10:22:02.550Z,1012.76
2018-08-20T10:23:57.968Z,1012.79
2018-08-20T10:24:57.968Z,1012.79
2018-08-20T10:26:53.043Z,1012.78
2018-08-20T10:27:54.986Z,1012.80
2018-08-20T10:28:53.288Z,1012.82
2018-08-20T10:29:52.768Z,1012.83
2018-08-20T10:30:53.001Z,1012.83
2018-08-20T10:31:53.568Z,1012.86
2018-08-20T10:32:53.283Z,1012.85
2018-08-20T10:33:52.744Z,1012.88
2018-08-20T10:34:52.788Z,1012.85
2018-08-20T10:36:52.977Z,1012.92
2018-08-20T10:37:52.860Z,1012.93
2018-08-20T10:38:52.810Z,1013.00
2018-08-20T10:39:54.590Z,1012.95
2018-08-20T10:40:53.964Z,1012.91
2018-08-20T10:41:52.736Z,1012.90
2018-08-20T10:42:53.036Z,1012.91
2018-08-20T10:43:52.357Z,1012.89
2018-08-20T10:44:53.261Z,1012.94
2018-08-20T10:45:53.287Z,1012.87
2018-08-20T10:46:53.009Z,1012.89
2018-08-20T10:47:52.785Z,1012.87
2018-08-20T10:48:52.747Z,1012.86
2018-08-20T10:49:53.047Z,1012.88
2018-08-20T10:50:53.308Z,1012.88
2018-08-20T10:51:53.088Z,1012.90
2018-08-20T10:52:53.535Z,1012.92
2018-08-20T10:53:52.443Z,1012.91
2018-08-20T10:54:53.272Z,1012.90
2018-08-20T10:55:52.991Z,1012.89
2018-08-20T10:56:53.028Z,1012.89
2018-08-20T10:57:52.783Z,1012.86
2018-08-20T10:58:53.019Z,1012.91
2018-08-20T10:59:52.484Z,1012.90
2018-08-20T11:00:53.133Z,1012.95
2018-08-20T11:01:53.008Z,1012.88
2018-08-20T11:02:52.976Z,1012.90
2018-08-20T11:03:53.076Z,1012.96
2018-08-20T11:04:55.315Z,1012.92
2018-08-20T11:05:53.005Z,1012.92
2018-08-20T11:06:52.804Z,1012.96
2018-08-20T11:07:52.957Z,1012.96
2018-08-20T11:08:53.768Z,1013.02
2018-08-20T11:09:52.756Z,1013.00
2018-08-20T11:10:52.805Z,1013.04
2018-08-20T11:11:53.289Z,1013.03
2018-08-20T11:12:53.020Z,1013.01
2018-08-20T11:13:52.996Z,1013.06
2018-08-20T11:14:53.640Z,1013.06
2018-08-20T11:15:55.698Z,1013.07
2018-08-20T11:16:54.589Z,1013.09
2018-08-20T11:17:53.006Z,1013.10
2018-08-20T11:18:52.926Z,1013.05
2018-08-20T11:19:53.306Z,1013.09
2018-08-20T11:20:52.963Z,1013.11
2018-08-20T11:21:52.802Z,1013.12
2018-08-20T11:22:53.426Z,1013.11
2018-08-20T11:23:53.440Z,1013.13
2018-08-20T11:24:52.440Z,1013.14
2018-08-20T11:25:54.984Z,1013.15
2018-08-20T11:26:52.798Z,1013.19
2018-08-20T11:27:52.971Z,1013.18
2018-08-20T11:28:53.105Z,1013.13
2018-08-20T11:29:53.356Z,1013.11
2018-08-20T11:30:53.056Z,1013.13
2018-08-20T11:31:52.760Z,1013.14
2018-08-20T11:32:52.791Z,1013.17
2018-08-20T11:33:52.762Z,1013.16
2018-08-20T11:34:53.317Z,1013.10
2018-08-20T11:35:53.067Z,1013.12
2018-08-20T11:36:53.051Z,1013.15
2018-08-20T11:37:53.451Z,1013.16
2018-08-20T11:38:52.980Z,1013.09
2018-08-20T11:40:52.635Z,1013.12
2018-08-20T11:41:52.934Z,1013.09
2018-08-20T11:42:53.385Z,1013.11
2018-08-20T11:43:54.017Z,1013.08
2018-08-20T11:44:53.354Z,1013.12
2018-08-20T11:45:54.092Z,1013.13
2018-08-20T11:46:52.831Z,1013.15
2018-08-20T11:47:53.017Z,1013.17
2018-08-20T11:48:53.067Z,1013.17
2018-08-20T11:49:53.012Z,1013.13
2018-08-20T11:50:52.558Z,1013.10
2018-08-20T11:51:52.840Z,1013.10
2018-08-20T11:52:53.353Z,1013.14
2018-08-20T11:53:53.348Z,1013.10
2018-08-20T11:54:53.042Z,1013.07
2018-08-20T11:55:53.544Z,1013.06
2018-08-20T11:56:52.813Z,1013.00
2018-08-20T11:57:52.770Z,1012.98
2018-08-20T11:58:52.845Z,1012.97
2018-08-20T11:59:53.250Z,1012.98
2018-08-20T12:00:53.429Z,1012.99
2018-08-20T12:01:54.707Z,1013.01
2018-08-20T12:02:52.787Z,1012.99
2018-08-20T12:03:52.888Z,1012.98
2018-08-20T12:04:53.029Z,1012.98
2018-08-20T12:05:53.254Z,1013.00
2018-08-20T12:06:52.482Z,1013.01
2018-08-20T12:07:52.769Z,1012.98
2018-08-20T12:08:52.846Z,1013.00
2018-08-20T12:09:52.827Z,1012.99
2018-08-20T12:10:52.836Z,1013.04
2018-08-20T12:11:52.835Z,1013.07
2018-08-20T12:12:52.834Z,1013.04
2018-08-20T12:13:52.907Z,1013.03
2018-08-20T12:14:52.436Z,1013.05
2018-08-20T12:15:52.847Z,1013.05
2018-08-20T12:16:52.812Z,1013.08
2018-08-20T12:17:53.592Z,1013.09
2018-08-20T12:18:52.794Z,1013.13